createdAt,value
2019-05-21T00:02:24.318Z,100556.17
2019-05-21T00:04:55.515Z,100549.36
2019-05-21T00:07:28.442Z,100551.42
2019-05-21T00:10:00.030Z,100551.42
2019-05-21T00:12:32.634Z,100542.84
2019-05-21T00:15:05.603Z,100554.35
2019-05-21T00:17:36.667Z,100558.84
2019-05-21T00:20:08.927Z,100558.43
2019-05-21T00:22:40.023Z,100553.25
2019-05-21T00:25:11.364Z,100554.35
2019-05-21T00:27:42.404Z,100548.87
2019-05-21T00:30:50.635Z,100546.13
2019-05-21T00:33:58.423Z,100548.36
2019-05-21T00:37:07.493Z,100544.02
2019-05-21T00:40:14.272Z,100547.02
2019-05-21T00:42:46.371Z,100552.77
2019-05-21T00:45:17.431Z,100548.28
2019-05-21T00:47:48.475Z,100539.39
2019-05-21T00:50:21.105Z,100538.55
2019-05-21T00:52:54.723Z,100539.88
2019-05-21T00:55:25.802Z,100533.84
2019-05-21T00:57:56.862Z,100538.55
2019-05-21T01:00:27.959Z,100542.32
2019-05-21T01:02:59.013Z,100537.61
2019-05-21T01:05:30.023Z,100533.80
2019-05-21T01:08:01.988Z,100527.47
2019-05-21T01:10:33.027Z,100532.09
2019-05-21T01:13:04.117Z,100532.69
2019-05-21T01:15:35.209Z,100527.06
2019-05-21T01:18:07.937Z,100529.03
2019-05-21T01:20:39.121Z,100526.36
2019-05-21T01:23:14.985Z,100531.06
2019-05-21T01:25:46.119Z,100524.06
2019-05-21T01:28:17.197Z,100523.58
2019-05-21T01:30:48.213Z,100517.41
2019-05-21T01:33:19.282Z,100519.98
2019-05-21T01:35:51.927Z,100515.14
2019-05-21T01:38:26.356Z,100513.59
2019-05-21T01:40:59.747Z,100524.95
2019-05-21T01:43:30.832Z,100518.21
2019-05-21T01:46:01.847Z,100518.47
2019-05-21T01:48:34.337Z,100513.41
2019-05-21T01:51:06.905Z,100515.51
2019-05-21T01:53:37.971Z,100511.99
2019-05-21T01:56:08.995Z,100512.70
2019-05-21T01:58:43.092Z,100523.09
2019-05-21T02:01:14.136Z,100522.84
2019-05-21T02:04:03.026Z,100526.21
2019-05-21T02:06:37.327Z,100541.58
2019-05-21T02:09:10.885Z,100534.06
2019-05-21T02:11:43.871Z,100540.58
2019-05-21T02:14:14.940Z,100544.95
2019-05-21T02:16:48.254Z,100548.46
2019-05-21T02:19:21.122Z,100550.98
2019-05-21T02:21:53.720Z,100552.69
2019-05-21T02:24:25.612Z,100551.69
2019-05-21T02:26:59.810Z,100554.91
2019-05-21T02:29:30.927Z,100549.83
2019-05-21T02:32:03.485Z,100554.68
2019-05-21T02:34:35.513Z,100555.86
2019-05-21T02:37:07.415Z,100563.61
2019-05-21T02:39:39.366Z,100573.78
2019-05-21T02:42:12.011Z,100573.64
2019-05-21T02:44:43.075Z,100576.91
2019-05-21T02:47:14.112Z,100579.16
2019-05-21T02:49:45.217Z,100574.98
2019-05-21T02:52:16.320Z,100581.58
2019-05-21T02:54:47.434Z,100581.80
2019-05-21T02:57:18.481Z,100589.02
2019-05-21T02:59:51.111Z,100582.13
2019-05-21T03:02:31.365Z,100588.70
2019-05-21T03:05:04.807Z,100591.44
2019-05-21T03:07:35.936Z,100599.84
2019-05-21T03:10:08.873Z,100603.22
2019-05-21T03:12:39.899Z,100598.58
2019-05-21T03:15:10.962Z,100604.81
2019-05-21T03:17:42.021Z,100613.80
2019-05-21T03:20:13.479Z,100621.66
2019-05-21T03:22:44.535Z,100623.59
2019-05-21T03:25:16.520Z,100627.50
2019-05-21T03:27:47.617Z,100628.13
2019-05-21T03:30:21.932Z,100629.56
2019-05-21T03:32:53.218Z,100627.13
2019-05-21T03:35:24.263Z,100630.30
2019-05-21T03:37:58.391Z,100625.72
2019-05-21T03:40:31.793Z,100631.29
2019-05-21T03:43:02.861Z,100628.50
2019-05-21T03:45:34.064Z,100632.88
2019-05-21T03:48:05.126Z,100631.67
2019-05-21T03:50:36.170Z,100630.05
2019-05-21T03:53:07.203Z,100637.23
2019-05-21T03:55:40.154Z,100641.83
2019-05-21T03:58:11.195Z,100651.77
2019-05-21T04:00:42.221Z,100649.48
2019-05-21T04:03:14.837Z,100666.27
2019-05-21T04:05:45.889Z,100663.44
2019-05-21T04:08:16.979Z,100664.16
2019-05-21T04:10:49.016Z,100672.15
2019-05-21T04:13:20.045Z,100678.54
2019-05-21T04:15:55.679Z,100680.92
2019-05-21T04:18:31.055Z,100666.98
2019-05-21T04:21:02.123Z,100669.94
2019-05-21T04:23:33.176Z,100660.53
2019-05-21T04:26:08.229Z,100661.50
2019-05-21T04:28:39.276Z,100650.69
2019-05-21T04:31:10.354Z,100642.44
2019-05-21T04:33:41.373Z,100642.52
2019-05-21T04:36:14.138Z,100643.84
2019-05-21T04:38:45.967Z,100646.25
2019-05-21T04:41:17.081Z,100648.50
2019-05-21T04:43:48.120Z,100661.28
2019-05-21T04:46:19.219Z,100649.02
2019-05-21T04:48:51.817Z,100651.14
2019-05-21T04:51:22.866Z,100641.48
2019-05-21T04:53:53.935Z,100634.23
2019-05-21T04:56:25.912Z,100640.42
2019-05-21T04:58:56.927Z,100643.73
2019-05-21T05:01:27.997Z,100644.34
2019-05-21T05:03:59.041Z,100635.84
2019-05-21T05:06:30.124Z,100630.73
2019-05-21T05:09:01.163Z,100627.80
2019-05-21T05:11:33.081Z,100626.59
2019-05-21T05:14:04.249Z,100631.68
2019-05-21T05:16:36.739Z,100624.91
2019-05-21T05:19:08.153Z,100628.38
2019-05-21T05:21:39.254Z,100618.52
2019-05-21T05:24:13.389Z,100621.48
2019-05-21T05:26:45.270Z,100614.32
2019-05-21T05:29:16.382Z,100612.83
2019-05-21T05:31:47.425Z,100615.33
2019-05-21T05:34:18.475Z,100619.08
2019-05-21T05:36:51.172Z,100611.39
2019-05-21T05:39:23.116Z,100616.98
2019-05-21T05:41:54.161Z,100612.00
2019-05-21T05:44:25.248Z,100612.70
2019-05-21T05:46:57.126Z,100620.14
2019-05-21T05:49:32.720Z,100623.26
2019-05-21T05:52:03.777Z,100633.58
2019-05-21T05:54:34.854Z,100630.44
2019-05-21T05:57:07.489Z,100628.76
2019-05-21T05:59:38.551Z,100632.45
2019-05-21T06:02:09.624Z,100630.92
2019-05-21T06:04:40.652Z,100632.27
2019-05-21T06:07:12.532Z,100639.03
2019-05-21T06:09:43.572Z,100641.09
2019-05-21T06:12:15.490Z,100632.78
2019-05-21T06:14:46.580Z,100644.16
2019-05-21T06:17:17.931Z,100646.90
2019-05-21T06:19:49.043Z,100649.63
2019-05-21T06:22:20.203Z,100647.52
2019-05-21T06:24:51.307Z,100658.67
2019-05-21T06:27:23.204Z,100657.70
2019-05-21T06:29:54.323Z,100661.24
2019-05-21T06:32:25.452Z,100664.09
2019-05-21T06:34:56.462Z,100659.02
2019-05-21T06:37:28.201Z,100658.69
2019-05-21T06:40:00.135Z,100666.77
2019-05-21T06:42:31.309Z,100675.25
2019-05-21T06:45:02.746Z,100677.37
2019-05-21T06:47:34.276Z,100682.02
2019-05-21T06:50:06.901Z,100685.98
2019-05-21T06:52:38.117Z,100685.73
2019-05-21T06:55:11.387Z,100684.56
2019-05-21T06:57:43.370Z,100705.01
2019-05-21T07:00:14.794Z,100707.61
2019-05-21T07:02:45.898Z,100715.79
2019-05-21T07:05:20.218Z,100711.78
2019-05-21T07:07:54.087Z,100712.19
2019-05-21T07:10:25.138Z,100713.91
2019-05-21T07:12:57.178Z,100720.39
2019-05-21T07:15:28.202Z,100717.41
2019-05-21T07:17:59.336Z,100717.77
2019-05-21T07:20:30.373Z,100715.58
2019-05-21T07:23:04.567Z,100720.66
2019-05-21T07:25:35.808Z,100725.18
2019-05-21T07:28:06.972Z,100725.88
2019-05-21T07:30:38.055Z,100728.33
2019-05-21T07:33:09.253Z,100727.47
2019-05-21T07:35:40.308Z,100728.33
2019-05-21T07:38:12.850Z,100724.17
2019-05-21T07:40:44.722Z,100725.23
2019-05-21T07:43:15.820Z,100723.58
2019-05-21T07:45:46.860Z,100721.28
2019-05-21T07:48:17.939Z,100719.78
2019-05-21T07:50:48.982Z,100711.31
2019-05-21T07:53:20.187Z,100715.22
2019-05-21T07:55:52.828Z,100711.19
2019-05-21T07:58:26.161Z,100704.27
2019-05-21T08:01:00.939Z,100706.09
2019-05-21T08:03:29.994Z,100696.02
2019-05-21T08:06:01.092Z,100692.93
2019-05-21T08:08:33.682Z,100690.19
2019-05-21T08:11:04.775Z,100690.55
2019-05-21T08:13:36.676Z,100693.96
2019-05-21T08:16:09.217Z,100691.45
2019-05-21T08:18:40.286Z,100689.53
2019-05-21T08:21:11.331Z,100686.62
2019-05-21T08:23:42.392Z,100694.84
2019-05-21T08:26:13.431Z,100697.87
2019-05-21T08:28:46.085Z,100697.62
2019-05-21T08:31:17.171Z,100701.21
2019-05-21T08:33:48.272Z,100708.32
2019-05-21T08:36:20.758Z,100703.33
2019-05-21T08:38:52.004Z,100709.19
2019-05-21T08:41:26.162Z,100699.39
2019-05-21T08:43:57.491Z,100702.17
2019-05-21T08:46:28.540Z,100699.59
2019-05-21T08:49:00.504Z,100690.00
2019-05-21T08:51:31.563Z,100686.13
2019-05-21T08:54:02.663Z,100700.74
2019-05-21T08:56:33.713Z,100692.35
2019-05-21T08:59:04.785Z,100694.79
2019-05-21T09:01:35.932Z,100692.06
2019-05-21T09:04:06.999Z,100693.75
2019-05-21T09:06:39.560Z,100699.28
2019-05-21T09:09:10.659Z,100688.08
2019-05-21T09:11:41.742Z,100688.31
2019-05-21T09:14:15.270Z,100692.17
2019-05-21T09:16:46.309Z,100692.02
2019-05-21T09:19:17.387Z,100696.27
2019-05-21T09:21:48.494Z,100694.30
2019-05-21T09:24:21.056Z,100690.90
2019-05-21T09:26:52.068Z,100691.81
2019-05-21T09:29:24.048Z,100696.35
2019-05-21T09:31:55.143Z,100690.88
2019-05-21T09:34:26.272Z,100694.37
2019-05-21T09:36:58.741Z,100691.98
2019-05-21T09:39:32.795Z,100697.40
2019-05-21T09:42:03.837Z,100686.59
2019-05-21T09:44:37.590Z,100697.20
2019-05-21T09:47:08.639Z,100682.91
2019-05-21T09:49:39.736Z,100687.98
2019-05-21T09:52:12.347Z,100694.36
2019-05-21T09:54:43.409Z,100696.39
2019-05-21T09:57:16.009Z,100704.42
2019-05-21T09:59:49.548Z,100695.31
2019-05-21T10:02:22.165Z,100697.11
2019-05-21T10:04:53.240Z,100688.55
2019-05-21T10:07:39.053Z,100697.00
2019-05-21T10:09:57.073Z,100694.98
2019-05-21T10:12:28.142Z,100695.66
2019-05-21T10:15:00.066Z,100702.08
2019-05-21T10:17:34.282Z,100702.38
2019-05-21T10:20:07.121Z,100706.41
2019-05-21T10:22:38.247Z,100709.42
2019-05-21T10:25:10.880Z,100699.70
2019-05-21T10:27:41.996Z,100707.23
2019-05-21T10:30:14.254Z,100723.50
2019-05-21T10:32:45.331Z,100714.71
2019-05-21T10:35:16.430Z,100720.37
2019-05-21T10:37:54.930Z,100710.23
2019-05-21T10:40:20.331Z,100724.69
2019-05-21T10:42:51.361Z,100720.36
2019-05-21T10:45:22.442Z,100725.59
2019-05-21T10:47:53.501Z,100726.45
2019-05-21T10:50:26.137Z,100726.33
2019-05-21T10:52:57.275Z,100717.23
2019-05-21T10:55:28.321Z,100714.56
2019-05-21T10:57:59.469Z,100712.91
2019-05-21T11:00:31.669Z,100720.54
2019-05-21T11:03:13.375Z,100718.14
2019-05-21T11:05:46.187Z,100726.88
2019-05-21T11:08:25.405Z,100718.15
2019-05-21T11:10:49.998Z,100719.41
2019-05-21T11:13:21.035Z,100724.77
2019-05-21T11:15:52.119Z,100723.39
2019-05-21T11:18:23.155Z,100722.92
2019-05-21T11:20:55.757Z,100728.86
2019-05-21T11:23:26.787Z,100726.63
2019-05-21T11:25:57.937Z,100728.66
2019-05-21T11:30:11.354Z,100717.31
2019-05-21T11:31:09.234Z,100714.63
2019-05-21T11:33:41.867Z,100721.44
2019-05-21T11:36:12.956Z,100718.29
2019-05-21T11:38:43.986Z,100719.50
2019-05-21T11:41:15.150Z,100716.14
2019-05-21T11:43:47.124Z,100711.79
2019-05-21T11:46:18.171Z,100710.31
2019-05-21T11:48:50.643Z,100721.74
2019-05-21T11:51:21.731Z,100713.50
2019-05-21T11:53:53.114Z,100721.57
2019-05-21T11:56:25.683Z,100715.55
2019-05-21T11:58:56.753Z,100714.87
2019-05-21T12:01:27.838Z,100717.94
2019-05-21T12:04:00.466Z,100722.59
2019-05-21T12:06:31.520Z,100723.62
2019-05-21T12:09:02.588Z,100721.92
2019-05-21T12:11:36.626Z,100720.57
2019-05-21T12:14:07.759Z,100714.36
2019-05-21T12:16:39.649Z,100719.58
2019-05-21T12:19:12.299Z,100713.19
2019-05-21T12:21:43.420Z,100716.52
2019-05-21T12:24:16.144Z,100727.07
2019-05-21T12:26:52.607Z,100722.22
2019-05-21T12:29:27.715Z,100717.20
2019-05-21T12:32:02.276Z,100719.86
2019-05-21T12:34:38.938Z,100722.19
2019-05-21T12:37:09.249Z,100722.55
2019-05-21T12:39:41.919Z,100726.89
2019-05-21T12:42:17.720Z,100723.85
2019-05-21T12:44:45.842Z,100731.06
2019-05-21T12:47:21.073Z,100723.48
2019-05-21T12:49:55.303Z,100725.88
2019-05-21T12:52:26.406Z,100718.34
2019-05-21T12:54:57.553Z,100724.53
2019-05-21T12:57:35.894Z,100714.13
2019-05-21T13:00:03.194Z,100709.42
2019-05-21T13:02:36.315Z,100709.09
2019-05-21T13:05:11.203Z,100710.65
2019-05-21T13:07:41.824Z,100707.43
2019-05-21T13:10:22.405Z,100710.36
2019-05-21T13:12:50.062Z,100708.31
2019-05-21T13:15:21.216Z,100708.69
2019-05-21T13:17:55.070Z,100704.47
2019-05-21T13:20:27.764Z,100705.80
2019-05-21T13:22:58.797Z,100704.81
2019-05-21T13:25:29.858Z,100707.52
2019-05-21T13:28:04.444Z,100701.13
2019-05-21T13:30:36.764Z,100709.20
2019-05-21T13:33:08.741Z,100703.45
2019-05-21T13:35:39.870Z,100705.48
2019-05-21T13:38:13.531Z,100701.47
2019-05-21T13:40:43.862Z,100705.48
2019-05-21T13:43:22.065Z,100706.12
2019-05-21T13:45:56.602Z,100707.13
2019-05-21T13:48:28.552Z,100694.41
2019-05-21T13:50:59.716Z,100692.36
2019-05-21T13:53:32.435Z,100694.73
2019-05-21T13:56:04.746Z,100694.56
2019-05-21T13:58:37.408Z,100699.42
2019-05-21T14:01:09.432Z,100692.86
2019-05-21T14:03:45.909Z,100695.55
2019-05-21T14:06:20.369Z,100693.72
2019-05-21T14:08:52.738Z,100699.23
2019-05-21T14:11:23.875Z,100698.03
2019-05-21T14:13:54.990Z,100700.07
2019-05-21T14:16:26.057Z,100699.59
2019-05-21T14:18:58.113Z,100702.13
2019-05-21T14:21:30.391Z,100699.09
2019-05-21T14:24:01.490Z,100697.08
2019-05-21T14:26:32.600Z,100694.69
2019-05-21T14:29:06.841Z,100690.30
2019-05-21T14:31:40.888Z,100681.59
2019-05-21T14:34:17.100Z,100674.53
2019-05-21T14:36:49.739Z,100675.20
2019-05-21T14:39:20.776Z,100669.45
2019-05-21T14:41:51.838Z,100675.86
2019-05-21T14:44:22.921Z,100672.47
2019-05-21T14:46:54.804Z,100670.78
2019-05-21T14:49:29.317Z,100663.56
2019-05-21T14:52:00.318Z,100668.75
2019-05-21T14:54:31.422Z,100668.09
2019-05-21T14:57:04.038Z,100662.41
2019-05-21T14:59:35.109Z,100661.36
2019-05-21T15:02:07.560Z,100661.36
2019-05-21T15:04:39.004Z,100655.26
2019-05-21T15:07:10.337Z,100654.57
2019-05-21T15:09:41.469Z,100652.20
2019-05-21T15:12:14.711Z,100653.70
2019-05-21T15:14:46.322Z,100651.52
2019-05-21T15:17:17.478Z,100659.78
2019-05-21T15:19:50.087Z,100661.70
2019-05-21T15:22:22.383Z,100668.58
2019-05-21T15:24:53.438Z,100666.30
2019-05-21T15:27:29.456Z,100676.91
2019-05-21T15:30:00.588Z,100671.46
2019-05-21T15:32:31.675Z,100675.48
2019-05-21T15:35:04.337Z,100674.09
2019-05-21T15:37:37.960Z,100683.42
2019-05-21T15:40:11.186Z,100686.05
2019-05-21T15:42:42.314Z,100683.37
2019-05-21T15:45:14.993Z,100681.41
2019-05-21T15:47:47.796Z,100675.44
2019-05-21T15:50:18.874Z,100676.77
2019-05-21T15:52:53.095Z,100675.08
2019-05-21T15:55:24.139Z,100676.64
2019-05-21T15:57:55.232Z,100685.19
2019-05-21T16:00:27.211Z,100681.66
2019-05-21T16:02:58.390Z,100672.78
2019-05-21T16:05:32.075Z,100680.14
2019-05-21T16:08:04.811Z,100676.78
2019-05-21T16:10:35.912Z,100669.07
2019-05-21T16:13:07.964Z,100673.09
2019-05-21T16:15:40.714Z,100670.06
2019-05-21T16:18:11.857Z,100671.44
2019-05-21T16:20:43.033Z,100663.38
2019-05-21T16:23:16.489Z,100654.66
2019-05-21T16:25:47.577Z,100651.97
2019-05-21T16:28:18.672Z,100647.59
2019-05-21T16:30:51.333Z,100657.35
2019-05-21T16:33:22.426Z,100656.68
2019-05-21T16:35:53.472Z,100651.62
2019-05-21T16:38:25.349Z,100661.06
2019-05-21T16:40:56.410Z,100663.72
2019-05-21T16:43:27.454Z,100658.00
2019-05-21T16:45:58.526Z,100665.06
2019-05-21T16:48:33.448Z,100659.86
2019-05-21T16:51:04.585Z,100657.17
2019-05-21T16:53:36.680Z,100664.05
2019-05-21T16:56:07.780Z,100667.26
2019-05-21T16:58:40.518Z,100660.02
2019-05-21T17:01:11.953Z,100659.34
2019-05-21T17:03:43.083Z,100660.27
2019-05-21T17:06:14.117Z,100659.06
2019-05-21T17:08:45.345Z,100656.19
2019-05-21T17:11:17.905Z,100654.81
2019-05-21T17:13:48.984Z,100662.11
2019-05-21T17:16:20.618Z,100673.75
2019-05-21T17:18:51.753Z,100678.38
2019-05-21T17:21:22.819Z,100666.24
2019-05-21T17:23:54.824Z,100657.22
2019-05-21T17:26:26.216Z,100657.66
2019-05-21T17:28:57.281Z,100648.63
2019-05-21T17:31:31.652Z,100649.38
2019-05-21T17:34:02.766Z,100647.84
2019-05-21T17:36:35.458Z,100653.57
2019-05-21T17:39:08.387Z,100657.25
2019-05-21T17:41:39.439Z,100659.49
2019-05-21T17:44:12.109Z,100661.09
2019-05-21T17:46:43.159Z,100661.00
2019-05-21T17:49:17.636Z,100662.82
2019-05-21T17:51:50.491Z,100659.48
2019-05-21T17:54:26.613Z,100657.45
2019-05-21T17:56:58.604Z,100655.09
2019-05-21T17:59:29.754Z,100665.41
2019-05-21T18:02:05.242Z,100673.14
2019-05-21T18:04:39.807Z,100692.27
2019-05-21T18:07:12.501Z,100679.22
2019-05-21T18:09:45.232Z,100687.59
2019-05-21T18:12:31.263Z,100686.36
2019-05-21T18:14:55.922Z,100691.75
2019-05-21T18:17:42.667Z,100683.39
2019-05-21T18:20:26.333Z,100676.74
2019-05-21T18:26:58.883Z,100678.36
2019-05-21T18:33:09.203Z,100674.06
2019-05-21T18:35:40.607Z,100669.33
2019-05-21T18:38:16.694Z,100669.97
2019-05-21T18:40:47.913Z,100675.81
2019-05-21T18:43:19.384Z,100675.71
2019-05-21T18:45:50.582Z,100674.45
2019-05-21T18:49:01.331Z,100672.23
2019-05-21T18:51:34.075Z,100658.50
2019-05-21T18:58:21.707Z,100647.11
2019-05-21T18:59:23.101Z,100645.81
2019-05-21T19:01:54.595Z,100648.03
2019-05-21T19:04:30.678Z,100654.72
2019-05-21T19:07:05.408Z,100668.16
2019-05-21T19:09:37.125Z,100681.08
2019-05-21T19:12:10.005Z,100687.36
2019-05-21T19:14:45.251Z,100693.38
2019-05-21T19:17:17.225Z,100699.91
2019-05-21T19:19:48.397Z,100690.47
2019-05-21T19:22:21.335Z,100693.28
2019-05-21T19:24:52.968Z,100701.03
2019-05-21T19:27:25.082Z,100702.85
2019-05-21T19:29:57.484Z,100706.44
2019-05-21T19:32:32.153Z,100713.97
2019-05-21T19:35:09.406Z,100718.23
2019-05-21T19:37:40.810Z,100720.61
2019-05-21T19:40:14.201Z,100725.30
2019-05-21T19:42:54.448Z,100712.72
2019-05-21T19:45:40.197Z,100723.84
2019-05-21T19:48:07.787Z,100720.37
2019-05-21T19:50:39.108Z,100720.71
2019-05-21T19:53:10.369Z,100721.31
2019-05-21T19:55:41.809Z,100718.01
2019-05-21T19:58:17.300Z,100722.64
2019-05-21T20:00:53.713Z,100722.64
2019-05-21T20:03:26.691Z,100721.87
2019-05-21T20:05:59.335Z,100717.86
2019-05-21T20:08:30.666Z,100719.27
2019-05-21T20:11:09.375Z,100718.38
2019-05-21T20:13:45.596Z,100717.23
2019-05-21T20:16:15.181Z,100716.67
2019-05-21T20:18:46.371Z,100714.45
2019-05-21T20:21:18.621Z,100713.81
2019-05-21T20:23:51.307Z,100713.55
2019-05-21T20:26:25.083Z,100718.63
2019-05-21T20:28:56.669Z,100709.34
2019-05-21T20:31:28.839Z,100717.44
2019-05-21T20:34:01.273Z,100717.28
2019-05-21T20:36:33.085Z,100716.53
2019-05-21T20:39:06.771Z,100723.91
2019-05-21T20:41:42.259Z,100711.89
2019-05-21T20:44:15.233Z,100714.13
2019-05-21T20:46:48.493Z,100720.30
2019-05-21T20:49:19.626Z,100722.19
2019-05-21T20:51:55.281Z,100722.45
2019-05-21T20:54:31.521Z,100726.50
2019-05-21T20:57:05.790Z,100727.28
2019-05-21T20:59:44.087Z,100727.65
2019-05-21T21:02:17.411Z,100737.32
2019-05-21T21:04:51.899Z,100739.14
2019-05-21T21:07:37.575Z,100742.18
2019-05-21T21:10:19.817Z,100735.80
2019-05-21T21:13:14.805Z,100731.17
2019-05-21T21:15:55.914Z,100725.13
2019-05-21T21:21:40.008Z,100728.05
2019-05-21T21:24:30.584Z,100720.76
2019-05-21T21:26:59.861Z,100726.23
2019-05-21T21:30:02.373Z,100726.46
2019-05-21T21:32:49.544Z,100724.13
2019-05-21T21:35:22.044Z,100729.64
2019-05-21T21:37:58.396Z,100720.59
2019-05-21T21:40:49.015Z,100713.02
2019-05-21T21:43:29.031Z,100711.59
2019-05-21T21:46:02.453Z,100704.33
2019-05-21T21:48:35.580Z,100706.38
2019-05-21T21:51:14.159Z,100710.48
2019-05-21T21:54:08.337Z,100705.72
2019-05-21T21:56:48.437Z,100705.95
2019-05-21T21:59:20.825Z,100706.80
2019-05-21T22:01:54.875Z,100709.47
2019-05-21T22:04:32.440Z,100706.66
2019-05-21T22:07:07.611Z,100707.84
2019-05-21T22:09:43.167Z,100705.55
2019-05-21T22:12:18.658Z,100710.52
2019-05-21T22:15:02.615Z,100695.77
2019-05-21T22:17:45.521Z,100702.91
2019-05-21T22:20:23.410Z,100702.58
2019-05-21T22:23:03.196Z,100699.43
2019-05-21T22:25:36.336Z,100691.05
2019-05-21T22:28:14.638Z,100696.76
2019-05-21T22:30:45.825Z,100681.87
2019-05-21T22:33:18.357Z,100684.64
2019-05-21T22:35:49.700Z,100683.94
2019-05-21T22:38:20.990Z,100680.70
2019-05-21T22:40:54.953Z,100683.14
2019-05-21T22:43:31.092Z,100686.44
2019-05-21T22:49:10.954Z,100691.65
2019-05-21T22:51:42.473Z,100683.08
2019-05-21T22:54:14.539Z,100680.19
2019-05-21T22:56:50.973Z,100682.14
2019-05-21T22:59:22.774Z,100682.77
2019-05-21T23:01:55.669Z,100675.16
2019-05-21T23:04:29.800Z,100681.94
2019-05-21T23:07:06.047Z,100683.55
2019-05-21T23:09:45.574Z,100679.80
2019-05-21T23:12:18.781Z,100677.76
2019-05-21T23:15:00.521Z,100675.20
2019-05-21T23:17:58.217Z,100674.02
2019-05-21T23:20:55.560Z,100668.59
2019-05-21T23:23:20.782Z,100660.22
2019-05-21T23:25:58.629Z,100669.34
2019-05-21T23:28:49.658Z,100662.30
2019-05-21T23:31:20.154Z,100660.74
2019-05-21T23:34:17.723Z,100656.52
2019-05-21T23:36:53.171Z,100656.77
2019-05-21T23:39:35.043Z,100662.09
2019-05-21T23:42:28.323Z,100659.95
2019-05-21T23:45:01.697Z,100648.83
2019-05-21T23:47:47.626Z,100643.51
2019-05-21T23:50:26.943Z,100640.50
2019-05-21T23:53:17.531Z,100638.32
2019-05-21T23:55:44.882Z,100639.05
2019-05-21T23:58:20.547Z,100643.80
